createdAt,value
2024-05-09T00:00:47.075Z,9.88
2024-05-09T00:03:17.480Z,11.35
2024-05-09T00:05:46.011Z,11.02
2024-05-09T00:08:13.557Z,13.77
2024-05-09T00:10:41.944Z,9.63
2024-05-09T00:13:10.880Z,11.43
2024-05-09T00:15:39.410Z,12.45
2024-05-09T00:18:07.991Z,12.13
2024-05-09T00:20:39.590Z,9.68
2024-05-09T00:23:12.898Z,12.70
2024-05-09T00:25:43.336Z,11.82
2024-05-09T00:28:14.505Z,10.15
2024-05-09T00:30:43.108Z,14.02
2024-05-09T00:33:11.629Z,10.95
2024-05-09T00:35:40.167Z,12.23
2024-05-09T00:38:07.569Z,10.52
2024-05-09T00:40:40.173Z,10.38
2024-05-09T00:43:14.510Z,11.00
2024-05-09T00:45:43.803Z,12.03
2024-05-09T00:48:16.423Z,11.13
2024-05-09T00:50:47.486Z,10.48
2024-05-09T00:53:16.757Z,10.15
2024-05-09T00:55:44.862Z,12.13
2024-05-09T00:58:15.570Z,11.45
2024-05-09T01:00:44.461Z,10.98
2024-05-09T01:03:14.237Z,11.05
2024-05-09T01:05:43.419Z,14.88
2024-05-09T01:08:12.135Z,10.80
2024-05-09T01:10:42.864Z,10.90
2024-05-09T01:13:12.692Z,10.40
2024-05-09T01:15:43.550Z,11.77
2024-05-09T01:18:13.546Z,11.30
2024-05-09T01:20:44.117Z,12.15
2024-05-09T01:23:15.241Z,9.98
2024-05-09T01:25:45.126Z,10.45
2024-05-09T01:28:14.340Z,8.88
2024-05-09T01:30:41.505Z,11.40
2024-05-09T01:33:10.752Z,9.45
2024-05-09T01:35:42.888Z,10.00
2024-05-09T01:38:14.329Z,10.93
2024-05-09T01:40:43.682Z,11.23
2024-05-09T01:43:12.075Z,10.50
2024-05-09T01:45:41.758Z,11.57
2024-05-09T01:48:11.748Z,10.30
2024-05-09T01:50:43.306Z,12.35
2024-05-09T01:53:15.137Z,12.00
2024-05-09T01:55:44.504Z,10.07
2024-05-09T01:58:13.699Z,10.10
2024-05-09T02:00:42.887Z,10.13
2024-05-09T02:03:15.847Z,9.75
2024-05-09T02:05:46.883Z,10.05
2024-05-09T02:08:19.453Z,10.63
2024-05-09T02:10:49.835Z,11.23
2024-05-09T02:13:19.179Z,8.40
2024-05-09T02:15:46.480Z,12.00
2024-05-09T02:18:14.380Z,10.98
2024-05-09T02:20:44.980Z,10.32
2024-05-09T02:23:12.878Z,8.88
2024-05-09T02:25:42.438Z,8.93
2024-05-09T02:28:09.558Z,9.98
2024-05-09T02:30:40.661Z,10.60
2024-05-09T02:33:12.179Z,9.27
2024-05-09T02:35:41.779Z,11.18
2024-05-09T02:38:13.067Z,8.23
2024-05-09T02:40:41.273Z,13.65
2024-05-09T02:43:13.252Z,11.55
2024-05-09T02:45:41.899Z,10.27
2024-05-09T02:48:13.117Z,9.93
2024-05-09T02:50:41.405Z,12.70
2024-05-09T02:53:10.069Z,10.85
2024-05-09T02:55:38.728Z,12.32
2024-05-09T02:58:10.772Z,12.70
2024-05-09T03:00:41.284Z,13.25
2024-05-09T03:03:14.749Z,12.40
2024-05-09T03:05:47.553Z,12.85
2024-05-09T03:08:14.948Z,10.85
2024-05-09T03:10:46.893Z,11.45
2024-05-09T03:13:16.156Z,11.40
2024-05-09T03:15:45.304Z,10.57
2024-05-09T03:18:16.025Z,11.35
2024-05-09T03:20:48.437Z,10.85
2024-05-09T03:23:15.977Z,12.00
2024-05-09T03:25:44.393Z,10.90
2024-05-09T03:28:11.983Z,11.55
2024-05-09T03:30:42.345Z,15.07
2024-05-09T03:33:19.433Z,13.45
2024-05-09T03:35:49.057Z,12.68
2024-05-09T03:38:17.395Z,13.25
2024-05-09T03:40:46.781Z,14.00
2024-05-09T03:43:14.691Z,12.50
2024-05-09T03:45:46.103Z,13.45
2024-05-09T03:48:13.798Z,14.77
2024-05-09T03:50:44.768Z,14.60
2024-05-09T03:53:19.369Z,9.85
2024-05-09T03:55:49.830Z,10.55
2024-05-09T03:58:19.315Z,9.70
2024-05-09T04:00:46.990Z,11.73
2024-05-09T04:03:15.580Z,10.75
2024-05-09T04:05:44.672Z,10.95
2024-05-09T04:08:12.376Z,11.13
2024-05-09T04:10:42.684Z,9.82
2024-05-09T04:13:11.220Z,9.85
2024-05-09T04:15:39.138Z,12.10
2024-05-09T04:18:07.046Z,14.25
2024-05-09T04:20:39.019Z,13.27
2024-05-09T04:25:42.692Z,12.30
2024-05-09T04:28:13.609Z,9.32
2024-05-09T04:30:42.668Z,10.88
2024-05-09T04:33:15.959Z,11.73
2024-05-09T04:35:45.860Z,11.93
2024-05-09T04:38:14.399Z,11.07
2024-05-09T04:40:43.665Z,12.07
2024-05-09T04:43:17.575Z,13.40
2024-05-09T04:45:45.057Z,12.23
2024-05-09T04:48:17.100Z,12.70
2024-05-09T04:50:44.443Z,12.40
2024-05-09T04:53:16.536Z,14.15
2024-05-09T04:55:46.065Z,13.23
2024-05-09T04:58:16.803Z,13.35
2024-05-09T05:00:44.393Z,9.25
2024-05-09T05:03:14.704Z,9.70
2024-05-09T05:05:45.427Z,11.60
2024-05-09T05:08:18.635Z,13.15
2024-05-09T05:10:48.697Z,13.60
2024-05-09T05:13:20.379Z,13.10
2024-05-09T05:15:51.475Z,10.68
2024-05-09T05:18:19.372Z,11.88
2024-05-09T05:20:47.328Z,11.40
2024-05-09T05:23:18.919Z,12.38
2024-05-09T05:25:49.836Z,11.27
2024-05-09T05:28:19.363Z,15.70
2024-05-09T05:30:46.846Z,11.18
2024-05-09T05:33:19.262Z,28.77
2024-05-09T05:35:47.348Z,10.15
2024-05-09T05:38:14.954Z,10.30
2024-05-09T05:40:42.607Z,12.57
2024-05-09T05:43:17.009Z,12.73
2024-05-09T05:45:44.471Z,15.25
2024-05-09T05:48:13.884Z,10.60
2024-05-09T05:50:41.923Z,9.82
2024-05-09T05:53:10.638Z,20.52
2024-05-09T05:55:42.857Z,11.50
2024-05-09T05:58:11.373Z,20.13
2024-05-09T06:00:40.304Z,11.13
2024-05-09T06:03:13.031Z,12.05
2024-05-09T06:05:43.934Z,11.07
2024-05-09T06:08:12.317Z,11.85
2024-05-09T06:10:42.443Z,11.07
2024-05-09T06:13:13.529Z,11.63
2024-05-09T06:15:42.363Z,10.65
2024-05-09T06:18:12.646Z,15.27
2024-05-09T06:20:43.644Z,12.35
2024-05-09T06:23:13.110Z,13.15
2024-05-09T06:25:40.968Z,13.70
2024-05-09T06:28:10.835Z,13.40
2024-05-09T06:30:42.427Z,16.98
2024-05-09T06:33:14.182Z,9.50
2024-05-09T06:35:46.699Z,9.73
2024-05-09T06:38:13.974Z,10.73
2024-05-09T06:40:43.981Z,12.18
2024-05-09T06:43:18.298Z,12.63
2024-05-09T06:45:48.686Z,11.93
2024-05-09T06:48:19.741Z,8.75
2024-05-09T06:50:48.324Z,9.32
2024-05-09T06:53:16.539Z,13.80
2024-05-09T06:55:44.152Z,11.88
2024-05-09T06:58:11.541Z,14.75
2024-05-09T07:00:44.171Z,13.48
2024-05-09T07:03:18.124Z,10.65
2024-05-09T07:05:48.440Z,9.98
2024-05-09T07:08:17.305Z,9.10
2024-05-09T07:10:45.019Z,8.98
2024-05-09T07:13:15.223Z,7.70
2024-05-09T07:15:43.850Z,10.73
2024-05-09T07:18:13.025Z,10.57
2024-05-09T07:20:42.221Z,14.35
2024-05-09T07:23:11.030Z,11.73
2024-05-09T07:25:39.962Z,11.38
2024-05-09T07:28:11.903Z,9.35
2024-05-09T07:30:39.217Z,10.20
2024-05-09T07:33:09.961Z,14.52
2024-05-09T07:35:38.427Z,9.23
2024-05-09T07:38:06.129Z,10.90
2024-05-09T07:40:36.522Z,8.98
2024-05-09T07:43:05.602Z,8.82
2024-05-09T07:53:36.349Z,9.73
2024-05-09T07:55:56.206Z,11.93
2024-05-09T07:58:27.873Z,11.07
2024-05-09T08:00:58.353Z,12.57
2024-05-09T08:03:26.880Z,8.63
2024-05-09T08:05:56.537Z,12.20
2024-05-09T08:08:23.758Z,9.95
2024-05-09T08:10:51.738Z,9.52
2024-05-09T08:13:19.261Z,8.85
2024-05-09T08:15:46.841Z,7.05
2024-05-09T08:18:18.362Z,10.98
2024-05-09T08:20:49.966Z,8.85
2024-05-09T08:23:19.749Z,7.97
2024-05-09T08:25:50.331Z,11.63
2024-05-09T08:28:17.920Z,7.70
2024-05-09T08:30:45.562Z,8.40
2024-05-09T08:33:13.320Z,10.50
2024-05-09T08:35:40.698Z,8.32
2024-05-09T08:38:10.298Z,8.30
2024-05-09T08:40:38.542Z,9.88
2024-05-09T08:43:11.666Z,8.50
2024-05-09T08:45:44.672Z,9.85
2024-05-09T08:48:15.853Z,7.90
2024-05-09T08:50:45.820Z,8.90
2024-05-09T08:53:15.118Z,7.93
2024-05-09T08:55:46.160Z,9.98
2024-05-09T08:58:17.047Z,7.88
2024-05-09T09:00:47.816Z,11.60
2024-05-09T09:03:20.047Z,7.78
2024-05-09T09:05:58.788Z,8.05
2024-05-09T09:08:26.878Z,9.32
2024-05-09T09:10:58.793Z,7.10
2024-05-09T09:13:26.886Z,7.47
2024-05-09T09:15:57.991Z,6.82
2024-05-09T09:18:27.208Z,7.00
2024-05-09T09:20:55.642Z,10.00
2024-05-09T09:23:23.335Z,9.63
2024-05-09T09:25:51.010Z,6.30
2024-05-09T09:28:22.956Z,5.10
2024-05-09T09:30:50.344Z,7.78
2024-05-09T09:33:18.291Z,8.82
2024-05-09T09:35:46.994Z,18.83
2024-05-09T09:38:23.251Z,11.63
2024-05-09T09:40:51.035Z,10.15
2024-05-09T09:43:22.958Z,32.22
2024-05-09T09:45:59.898Z,47.22
2024-05-09T09:48:31.710Z,16.85
2024-05-09T09:50:59.968Z,11.98
2024-05-09T09:53:29.274Z,8.85
2024-05-09T09:55:58.014Z,7.03
2024-05-09T09:58:25.946Z,5.88
2024-05-09T10:00:55.717Z,8.15
2024-05-09T10:03:27.588Z,5.53
2024-05-09T10:05:56.180Z,6.65
2024-05-09T10:08:25.017Z,9.98
2024-05-09T10:10:52.919Z,6.63
2024-05-09T10:13:20.803Z,12.32
2024-05-09T10:15:52.285Z,8.85
2024-05-09T10:18:28.122Z,7.45
2024-05-09T10:20:58.048Z,5.43
2024-05-09T10:23:33.832Z,6.60
2024-05-09T10:26:06.357Z,7.18
2024-05-09T10:28:42.261Z,6.47
2024-05-09T10:31:15.052Z,5.78
2024-05-09T10:33:51.707Z,6.38
2024-05-09T10:36:29.197Z,6.95
2024-05-09T10:38:56.592Z,8.57
2024-05-09T10:41:24.265Z,8.57
2024-05-09T10:43:52.442Z,7.00
2024-05-09T10:46:21.399Z,7.88
2024-05-09T10:48:49.369Z,6.60
2024-05-09T10:51:20.074Z,8.23
2024-05-09T10:53:48.710Z,6.47
2024-05-09T10:56:17.311Z,9.02
2024-05-09T10:58:45.030Z,6.80
2024-05-09T11:01:14.086Z,7.68
2024-05-09T11:03:42.835Z,8.13
2024-05-09T11:06:11.775Z,9.50
2024-05-09T11:08:39.646Z,7.07
2024-05-09T11:11:11.194Z,7.80
2024-05-09T11:13:39.517Z,5.45
2024-05-09T11:16:17.666Z,5.57
2024-05-09T11:18:59.058Z,6.28
2024-05-09T11:21:27.136Z,7.93
2024-05-09T11:23:55.320Z,5.22
2024-05-09T11:26:25.485Z,6.85
2024-05-09T11:28:52.903Z,6.68
2024-05-09T11:31:21.478Z,6.10
2024-05-09T11:33:49.364Z,6.63
2024-05-09T11:36:17.050Z,5.65
2024-05-09T11:38:44.158Z,5.85
2024-05-09T11:41:21.437Z,6.90
2024-05-09T11:43:48.818Z,6.13
2024-05-09T11:46:16.482Z,5.88
2024-05-09T11:48:43.841Z,5.93
2024-05-09T11:51:11.129Z,4.90
2024-05-09T11:53:38.628Z,4.47
2024-05-09T11:56:08.140Z,5.72
2024-05-09T11:58:38.510Z,3.92
2024-05-09T12:01:06.223Z,4.75
2024-05-09T12:03:38.944Z,5.32
2024-05-09T12:06:09.727Z,4.97
2024-05-09T12:08:39.440Z,7.13
2024-05-09T12:11:08.025Z,7.05
2024-05-09T12:13:36.352Z,5.63
2024-05-09T12:16:03.770Z,5.35
2024-05-09T12:18:31.691Z,4.75
2024-05-09T12:21:01.129Z,3.35
2024-05-09T12:23:28.747Z,6.88
2024-05-09T12:25:57.129Z,8.50
2024-05-09T12:28:26.666Z,4.60
2024-05-09T12:30:54.037Z,6.40
2024-05-09T12:33:22.052Z,6.97
2024-05-09T12:35:51.011Z,4.68
2024-05-09T12:38:19.411Z,3.70
2024-05-09T12:40:47.097Z,4.32
2024-05-09T12:43:14.318Z,4.75
2024-05-09T12:45:41.990Z,5.55
2024-05-09T12:48:13.268Z,5.15
2024-05-09T12:50:42.792Z,4.97
2024-05-09T12:53:10.408Z,4.50
2024-05-09T12:55:45.154Z,4.05
2024-05-09T12:58:22.771Z,3.80
2024-05-09T13:00:52.203Z,3.88
2024-05-09T13:03:19.682Z,3.67
2024-05-09T13:05:47.502Z,4.30
2024-05-09T13:08:14.959Z,8.57
2024-05-09T13:10:44.535Z,7.05
2024-05-09T13:13:14.382Z,3.20
2024-05-09T13:15:41.639Z,4.90
2024-05-09T13:18:10.307Z,6.38
2024-05-09T13:20:38.583Z,8.30
2024-05-09T13:23:08.315Z,3.13
2024-05-09T13:25:38.047Z,4.82
2024-05-09T13:28:07.019Z,7.40
2024-05-09T13:30:40.180Z,6.10
2024-05-09T13:33:14.127Z,6.68
2024-05-09T13:35:47.085Z,4.07
2024-05-09T13:38:18.503Z,5.28
2024-05-09T13:40:46.039Z,4.72
2024-05-09T13:43:13.880Z,6.18
2024-05-09T13:45:42.951Z,4.47
2024-05-09T13:48:10.659Z,3.70
2024-05-09T13:50:39.468Z,5.50
2024-05-09T13:53:09.676Z,5.32
2024-05-09T13:55:41.007Z,5.78
2024-05-09T13:58:09.877Z,3.92
2024-05-09T14:00:46.677Z,7.03
2024-05-09T14:03:18.659Z,5.75
2024-05-09T14:05:48.305Z,4.28
2024-05-09T14:08:19.859Z,9.07
2024-05-09T14:10:48.932Z,8.35
2024-05-09T14:13:17.878Z,3.38
2024-05-09T14:15:46.355Z,4.15
2024-05-09T14:18:14.501Z,3.30
2024-05-09T14:20:44.148Z,4.28
2024-05-09T14:23:20.781Z,4.85
2024-05-09T14:25:51.871Z,5.88
2024-05-09T14:28:22.172Z,5.30
2024-05-09T14:30:49.840Z,4.47
2024-05-09T14:33:23.820Z,3.30
2024-05-09T14:35:51.476Z,6.13
2024-05-09T14:38:18.837Z,5.82
2024-05-09T14:40:46.318Z,7.38
2024-05-09T14:43:16.046Z,8.48
2024-05-09T14:45:44.762Z,6.75
2024-05-09T14:48:15.682Z,5.15
2024-05-09T14:50:43.556Z,5.28
2024-05-09T14:53:12.691Z,7.32
2024-05-09T14:55:42.213Z,3.20
2024-05-09T14:58:11.546Z,2.50
2024-05-09T15:00:46.257Z,3.55
2024-05-09T15:03:21.089Z,4.63
2024-05-09T15:05:49.698Z,2.70
2024-05-09T15:08:18.450Z,4.50
2024-05-09T15:10:47.342Z,3.45
2024-05-09T15:13:17.419Z,3.75
2024-05-09T15:15:45.483Z,5.90
2024-05-09T15:18:14.311Z,3.97
2024-05-09T15:20:45.336Z,3.85
2024-05-09T15:23:13.724Z,3.40
2024-05-09T15:25:41.276Z,2.58
2024-05-09T15:28:08.953Z,3.50
2024-05-09T15:30:37.230Z,4.05
2024-05-09T15:33:06.435Z,4.72
2024-05-09T15:35:35.096Z,3.28
2024-05-09T15:38:03.731Z,1.80
2024-05-09T15:40:39.199Z,4.75
2024-05-09T15:43:10.609Z,3.53
2024-05-09T15:45:42.385Z,4.53
2024-05-09T15:48:12.175Z,1.85
2024-05-09T15:50:41.994Z,3.78
2024-05-09T15:53:12.204Z,2.97
2024-05-09T15:55:40.683Z,2.75
2024-05-09T15:58:08.483Z,3.92
2024-05-09T16:00:39.816Z,2.38
2024-05-09T16:03:11.744Z,2.47
2024-05-09T16:05:41.195Z,3.58
2024-05-09T16:08:09.231Z,3.33
2024-05-09T16:10:48.250Z,2.38
2024-05-09T16:13:17.570Z,5.57
2024-05-09T16:15:46.588Z,3.20
2024-05-09T16:18:15.279Z,4.60
2024-05-09T16:20:46.463Z,8.57
2024-05-09T16:23:15.669Z,19.42
2024-05-09T16:25:46.366Z,8.90
2024-05-09T16:28:14.094Z,3.60
2024-05-09T16:30:41.852Z,3.38
2024-05-09T16:33:13.598Z,3.25
2024-05-09T16:35:44.821Z,4.53
2024-05-09T16:38:12.506Z,3.55
2024-05-09T16:40:41.352Z,3.35
2024-05-09T16:43:13.358Z,2.47
2024-05-09T16:45:44.971Z,3.17
2024-05-09T16:48:14.640Z,3.03
2024-05-09T16:50:44.990Z,2.40
2024-05-09T16:53:13.931Z,6.10
2024-05-09T16:55:41.058Z,3.35
2024-05-09T16:58:08.856Z,5.90
2024-05-09T17:00:41.593Z,4.30
2024-05-09T17:03:15.763Z,3.80
2024-05-09T17:05:46.783Z,3.78
2024-05-09T17:08:16.065Z,7.57
2024-05-09T17:10:43.411Z,5.13
2024-05-09T17:13:13.411Z,13.02
2024-05-09T17:15:42.772Z,3.78
2024-05-09T17:18:10.231Z,16.13
2024-05-09T17:20:38.122Z,8.00
2024-05-09T17:23:13.701Z,7.97
2024-05-09T17:25:42.819Z,6.57
2024-05-09T17:28:12.013Z,7.75
2024-05-09T17:30:42.478Z,6.88
2024-05-09T17:33:11.651Z,4.35
2024-05-09T17:35:41.196Z,5.55
2024-05-09T17:38:11.738Z,5.82
2024-05-09T17:40:39.562Z,6.25
2024-05-09T17:43:10.859Z,6.00
2024-05-09T17:45:40.497Z,7.50
2024-05-09T17:48:12.680Z,6.07
2024-05-09T17:50:41.425Z,6.35
2024-05-09T17:53:10.813Z,4.93
2024-05-09T17:55:39.896Z,10.73
2024-05-09T17:58:08.081Z,9.82
2024-05-09T18:00:39.601Z,7.60
2024-05-09T18:03:13.788Z,24.90
2024-05-09T18:05:44.413Z,12.98
2024-05-09T18:08:13.231Z,18.33
2024-05-09T18:10:41.682Z,25.13
2024-05-09T18:13:10.102Z,4.00
2024-05-09T18:15:38.582Z,6.60
2024-05-09T18:18:07.677Z,6.95
2024-05-09T18:20:42.399Z,4.97
2024-05-09T18:23:16.379Z,4.68
2024-05-09T18:25:47.265Z,4.10
2024-05-09T18:28:16.223Z,6.40
2024-05-09T18:30:44.358Z,3.97
2024-05-09T18:33:12.347Z,7.47
2024-05-09T18:35:43.318Z,6.97
2024-05-09T18:38:13.122Z,12.43
2024-05-09T18:40:42.996Z,11.20
2024-05-09T18:43:12.347Z,4.85
2024-05-09T18:45:40.508Z,5.45
2024-05-09T18:48:12.139Z,5.70
2024-05-09T18:50:42.014Z,6.60
2024-05-09T18:53:11.803Z,7.32
2024-05-09T18:55:41.234Z,5.72
2024-05-09T18:58:08.584Z,6.35
2024-05-09T19:00:39.861Z,7.65
2024-05-09T19:03:15.365Z,7.97
2024-05-09T19:05:45.240Z,5.75
2024-05-09T19:08:13.487Z,7.93
2024-05-09T19:10:41.264Z,4.72
2024-05-09T19:13:12.318Z,10.43
2024-05-09T19:15:42.780Z,5.28
2024-05-09T19:18:15.416Z,6.60
2024-05-09T19:20:49.610Z,7.57
2024-05-09T19:23:17.094Z,6.20
2024-05-09T19:25:45.652Z,7.68
2024-05-09T19:28:13.014Z,7.72
2024-05-09T19:30:42.820Z,7.72
2024-05-09T19:33:18.616Z,9.85
2024-05-09T19:35:46.163Z,6.97
2024-05-09T19:38:13.842Z,3.95
2024-05-09T19:40:41.145Z,4.05
2024-05-09T19:43:08.808Z,6.22
2024-05-09T19:45:37.544Z,4.70
2024-05-09T19:48:06.773Z,3.95
2024-05-09T19:50:41.672Z,6.60
2024-05-09T19:53:13.695Z,5.88
2024-05-09T19:55:43.092Z,4.32
2024-05-09T19:58:11.889Z,5.97
2024-05-09T20:00:42.310Z,4.18
2024-05-09T20:03:14.981Z,5.75
2024-05-09T20:05:46.512Z,5.32
2024-05-09T20:08:14.917Z,6.00
2024-05-09T20:10:45.364Z,6.55
2024-05-09T20:13:14.873Z,8.95
2024-05-09T20:15:42.353Z,17.15
2024-05-09T20:18:09.924Z,9.68
2024-05-09T20:20:41.520Z,6.75
2024-05-09T20:23:14.457Z,4.07
2024-05-09T20:25:42.564Z,4.20
2024-05-09T20:28:10.870Z,4.85
2024-05-09T20:30:38.831Z,6.70
2024-05-09T20:33:07.920Z,6.97
2024-05-09T20:35:36.584Z,4.30
2024-05-09T20:38:05.708Z,8.00
2024-05-09T20:40:38.892Z,5.00
2024-05-09T20:43:10.850Z,4.68
2024-05-09T20:45:40.288Z,4.28
2024-05-09T20:48:09.468Z,4.75
2024-05-09T20:50:41.142Z,5.65
2024-05-09T20:53:13.104Z,5.80
2024-05-09T20:55:41.651Z,4.18
2024-05-09T20:58:10.035Z,6.07
2024-05-09T21:00:42.565Z,5.25
2024-05-09T21:03:14.161Z,5.63
2024-05-09T21:05:42.694Z,7.88
2024-05-09T21:08:09.885Z,6.18
2024-05-09T21:10:37.800Z,5.50
2024-05-09T21:13:06.846Z,4.82
2024-05-09T21:15:35.598Z,7.15
2024-05-09T21:18:04.053Z,5.13
2024-05-09T21:20:33.556Z,4.65
2024-05-09T21:23:02.587Z,6.28
2024-05-09T21:25:29.929Z,5.38
2024-05-09T21:27:57.978Z,5.25
2024-05-09T21:30:37.364Z,5.85
2024-05-09T21:33:10.485Z,5.47
2024-05-09T21:35:41.072Z,5.13
2024-05-09T21:38:09.316Z,4.50
2024-05-09T21:40:38.164Z,5.25
2024-05-09T21:43:07.318Z,5.03
2024-05-09T21:45:37.880Z,5.35
2024-05-09T21:48:06.416Z,5.18
2024-05-09T21:50:40.419Z,8.05
2024-05-09T21:53:12.858Z,4.85
2024-05-09T21:55:43.095Z,4.97
2024-05-09T21:58:11.916Z,7.20
2024-05-09T22:00:40.957Z,5.88
2024-05-09T22:03:10.277Z,6.25
2024-05-09T22:05:42.340Z,4.88
2024-05-09T22:08:09.978Z,6.45
2024-05-09T22:10:37.711Z,7.97
2024-05-09T22:13:07.143Z,5.90
2024-05-09T22:15:40.316Z,5.93
2024-05-09T22:18:08.945Z,7.50
2024-05-09T22:20:39.566Z,9.48
2024-05-09T22:23:09.020Z,7.22
2024-05-09T22:25:38.857Z,5.50
2024-05-09T22:28:06.828Z,6.65
2024-05-09T22:30:38.227Z,6.93
2024-05-09T22:33:11.068Z,4.95
2024-05-09T22:35:40.956Z,6.30
2024-05-09T22:38:09.353Z,6.38
2024-05-09T22:40:46.775Z,6.82
2024-05-09T22:43:24.328Z,7.00
2024-05-09T22:45:54.980Z,6.75
2024-05-09T22:48:24.378Z,10.05
2024-05-09T22:50:52.335Z,9.00
2024-05-09T22:53:23.931Z,6.32
2024-05-09T22:55:53.539Z,8.13
2024-05-09T22:58:21.130Z,6.90
2024-05-09T23:00:50.751Z,7.60
2024-05-09T23:03:21.536Z,7.18
2024-05-09T23:05:52.204Z,9.85
2024-05-09T23:08:19.612Z,6.80
2024-05-09T23:10:47.240Z,6.80
2024-05-09T23:13:14.613Z,6.30
2024-05-09T23:15:44.161Z,6.88
2024-05-09T23:18:11.799Z,7.53
2024-05-09T23:20:40.193Z,6.95
2024-05-09T23:23:08.970Z,6.40
2024-05-09T23:25:43.994Z,8.98
2024-05-09T23:28:11.854Z,9.48
2024-05-09T23:30:41.158Z,8.60
2024-05-09T23:33:13.904Z,7.20
2024-05-09T23:35:44.606Z,7.67
2024-05-09T23:38:12.959Z,7.68
2024-05-09T23:40:41.809Z,9.25
2024-05-09T23:43:11.958Z,9.23
2024-05-09T23:45:43.031Z,8.60
2024-05-09T23:48:11.520Z,7.93
2024-05-09T23:50:40.287Z,6.93
2024-05-09T23:53:09.632Z,8.55
2024-05-09T23:55:38.643Z,10.80
2024-05-09T23:58:07.910Z,7.63
